Elbow Lake, Minnesota
Current Conditions -  °F | °C
As of 6:14 AM on Friday 21 Nov 2014 (Local Time) from KFFM Reporting Station
Clear Clear  
Wind Chill: -2°   Ceiling: Unl
Heat Index: 14°   Visibility: 10mi
Dew Point:   Wind: 16mph
Humidity: 73%   Direction: 160°SSE
Pressure: 30.01"   Gusts: NA
Location:  45.99°N, 95.98°W
Report Text: KFFM 211214Z AUTO 16014KT 10SM CLR M10/M14 A3001 RMK AO2
Loading
Personal Weather Stations






























Interactive Weather Map New forecast layout! Learn more

10-Day Weather Forecast

Advertisements
Track Severe Weather on mobile